CST,Max TemperatureF,Mean TemperatureF,Min TemperatureF,Max Dew PointF,MeanDew PointF,Min DewpointF,Max Humidity, Mean Humidity, Min Humidity, Max Sea Level PressureIn, Mean Sea Level PressureIn, Min Sea Level PressureIn, Max VisibilityMiles, Mean VisibilityMiles, Min VisibilityMiles, Max Wind SpeedMPH, Mean Wind SpeedMPH, Max Gust SpeedMPH,PrecipitationIn, CloudCover, Events, WindDirDegrees
2012-11-1,61,45,29,36,31,27,91,60,32,30.04,29.97,29.90,10,10,10,9,2,,0.00,2,,234
2012-11-2,61,50,38,41,35,31,100,64,32,30.05,29.99,29.88,10,10,7,8,2,,0.00,0,,6
2012-11-3,68,55,42,48,38,34,83,60,44,30.12,30.02,29.94,10,10,7,14,4,22,0.00,2,,35
2012-11-4,54,45,36,39,35,30,100,76,39,30.23,30.17,30.13,10,8,2,7,2,,0.00,1,,348
2012-11-5,49,44,38,42,36,32,99,77,53,30.16,30.10,30.05,10,10,5,6,1,,0.04,8,,74
2012-11-6,50,44,37,43,41,36,100,86,67,30.07,30.00,29.94,10,8,2,9,1,,0.01,7,,263
2012-11-7,48,42,36,42,39,36,100,80,66,30.18,30.04,29.92,10,10,4,13,4,17,0.00,7,,314
2012-11-8,57,44,30,46,36,30,100,82,49,30.28,30.20,30.15,10,6,0,7,1,,0.00,2,,183
2012-11-9,69,52,34,46,41,35,100,66,39,30.20,30.13,30.06,10,9,4,14,4,18,0.00,1,,171
2012-11-10,72,62,53,53,45,40,71,54,41,30.18,30.12,30.07,10,10,10,17,9,23,0.00,0,,182
2012-11-11,71,64,53,60,50,42,100,61,48,30.12,30.02,29.93,10,9,3,23,11,34,0.53,5,,169
2012-11-12,52,41,30,53,33,20,100,74,34,30.46,30.30,30.02,10,9,5,16,7,22,0.64,3,,301
2012-11-13,49,37,25,32,26,20,100,68,31,30.54,30.48,30.44,10,10,2,6,1,,0.00,0,,17
2012-11-14,47,38,30,30,28,26,93,70,45,30.48,30.41,30.34,10,10,2,9,2,,0.00,0,,32
2012-11-15,53,40,27,34,30,28,100,75,39,30.40,30.35,30.30,10,9,4,7,1,,0.00,0,,355
2012-11-16,57,43,29,35,30,26,100,67,30,30.45,30.41,30.37,10,10,2,8,2,,0.00,0,,17
2012-11-17,60,44,29,34,30,25,99,67,27,30.50,30.43,30.39,10,9,2,7,1,,0.00,0,,42
2012-11-18,63,46,28,37,33,28,100,74,32,30.42,30.36,30.32,10,9,3,6,1,,0.00,0,,150
2012-11-19,64,48,33,43,37,32,100,69,30,30.33,30.25,30.16,10,10,10,6,0,,0.00,3,,234
2012-11-20,68,58,49,50,46,41,90,65,49,30.16,30.11,30.04,10,10,7,9,3,,0.00,2,,257
2012-11-21,65,52,37,52,44,37,100,85,49,30.27,30.21,30.16,10,5,0,6,1,,0.00,0,,4
2012-11-22,66,50,33,50,42,33,100,74,45,30.20,30.13,30.06,10,6,0,14,3,18,0.00,2,,194
2012-11-23,56,44,32,54,34,21,100,61,45,30.32,30.21,30.07,10,10,7,21,9,25,0.03,2,,305
2012-11-24,38,32,25,24,21,18,79,65,48,30.36,30.27,30.12,10,10,10,9,4,,0.00,0,,297
2012-11-25,57,44,31,32,27,23,88,59,33,30.11,30.03,29.95,10,10,10,15,7,20,0.00,0,,209
2012-11-26,51,42,33,45,35,31,98,80,47,30.28,30.13,30.05,10,9,4,16,2,20,0.39,6,,21
2012-11-27,43,34,25,32,27,25,100,77,52,30.40,30.34,30.28,10,9,2,12,6,,0.09,0,,353
2012-11-28,48,35,22,37,27,22,100,81,39,30.47,30.40,30.36,10,7,0,7,0,,0.00,2,,234
2012-11-29,57,41,25,34,29,26,100,67,34,30.37,30.29,30.22,10,9,4,14,3,17,0.00,0,,181
2012-11-30,62,50,37,45,38,29,75,59,41,30.24,30.19,30.13,10,10,10,12,5,17,0.00,3,,182